Terminal Aerodrome Forecast
Issued by NWS Buffalo, NY

Home | Current Version | Previous Version | Text Only | Print | Product List | Glossary On
Versions: 1 2 3 4 5 6 7 8 9 10 11 12 13 14 15 16 17 18 19 20 21 22 23 24 25 26
000
FTUS41 KBUF 282329
TAFART
TAF
KART 282329Z 2900/2924 22004KT P6SM SKC
     FM290200 18004KT P6SM FEW250
     FM291500 21008KT P6SM BKN250
     FM291900 24011KT P6SM BKN140
     FM292100 24010KT P6SM BKN120=

USA.gov is the U.S. government's official web portal to all federal, state and local government web resources and services.